sensor_id;sensor_type;location;lat;lon;timestamp;temperature;humidity
21580;DHT22;10951;59.656;9.666;2023-04-03T00:00:53;-1.70;66.60
21580;DHT22;10951;59.656;9.666;2023-04-03T00:03:20;-1.70;66.90
21580;DHT22;10951;59.656;9.666;2023-04-03T00:05:47;-1.70;67.00
21580;DHT22;10951;59.656;9.666;2023-04-03T00:08:15;-1.80;67.20
21580;DHT22;10951;59.656;9.666;2023-04-03T00:10:42;-1.90;67.20
21580;DHT22;10951;59.656;9.666;2023-04-03T00:13:09;-1.90;67.60
21580;DHT22;10951;59.656;9.666;2023-04-03T00:15:37;-1.90;68.00
21580;DHT22;10951;59.656;9.666;2023-04-03T00:18:05;-1.90;68.10
21580;DHT22;10951;59.656;9.666;2023-04-03T00:20:32;-2.00;68.20
21580;DHT22;10951;59.656;9.666;2023-04-03T00:23:00;-1.90;68.50
21580;DHT22;10951;59.656;9.666;2023-04-03T00:25:28;-1.90;68.50
21580;DHT22;10951;59.656;9.666;2023-04-03T00:27:55;-1.90;68.50
21580;DHT22;10951;59.656;9.666;2023-04-03T00:30:23;-1.90;68.60
21580;DHT22;10951;59.656;9.666;2023-04-03T00:32:51;-2.00;69.20
21580;DHT22;10951;59.656;9.666;2023-04-03T00:35:20;-2.10;69.50
21580;DHT22;10951;59.656;9.666;2023-04-03T00:37:50;-2.20;70.00
21580;DHT22;10951;59.656;9.666;2023-04-03T00:40:17;-2.30;70.50
21580;DHT22;10951;59.656;9.666;2023-04-03T00:42:46;-2.30;71.20
21580;DHT22;10951;59.656;9.666;2023-04-03T00:47:53;-2.30;71.90
21580;DHT22;10951;59.656;9.666;2023-04-03T00:50:20;-2.30;71.90
21580;DHT22;10951;59.656;9.666;2023-04-03T00:52:47;-2.30;70.70
21580;DHT22;10951;59.656;9.666;2023-04-03T00:55:16;-2.30;70.10
21580;DHT22;10951;59.656;9.666;2023-04-03T00:57:43;-2.20;69.70
21580;DHT22;10951;59.656;9.666;2023-04-03T01:00:12;-2.20;69.50
21580;DHT22;10951;59.656;9.666;2023-04-03T01:02:40;-2.20;69.50
21580;DHT22;10951;59.656;9.666;2023-04-03T01:05:12;-2.20;69.10
21580;DHT22;10951;59.656;9.666;2023-04-03T01:07:39;-2.20;69.00
21580;DHT22;10951;59.656;9.666;2023-04-03T01:10:09;-2.20;68.90
21580;DHT22;10951;59.656;9.666;2023-04-03T01:12:38;-2.20;69.60
21580;DHT22;10951;59.656;9.666;2023-04-03T01:15:16;-2.20;69.70
21580;DHT22;10951;59.656;9.666;2023-04-03T01:17:51;-2.20;70.10
21580;DHT22;10951;59.656;9.666;2023-04-03T01:25:48;-2.30;68.50
21580;DHT22;10951;59.656;9.666;2023-04-03T01:28:30;-2.20;68.80
21580;DHT22;10951;59.656;9.666;2023-04-03T01:31:19;-2.30;68.70
21580;DHT22;10951;59.656;9.666;2023-04-03T01:33:47;-2.30;68.40
21580;DHT22;10951;59.656;9.666;2023-04-03T01:36:18;-2.30;68.50
21580;DHT22;10951;59.656;9.666;2023-04-03T01:38:45;-2.20;68.30
21580;DHT22;10951;59.656;9.666;2023-04-03T01:41:12;-2.30;68.40
21580;DHT22;10951;59.656;9.666;2023-04-03T01:43:40;-2.30;69.00
21580;DHT22;10951;59.656;9.666;2023-04-03T01:46:07;-2.40;69.70
21580;DHT22;10951;59.656;9.666;2023-04-03T01:48:34;-2.40;70.00
21580;DHT22;10951;59.656;9.666;2023-04-03T01:51:01;-2.40;69.90
21580;DHT22;10951;59.656;9.666;2023-04-03T01:53:28;-2.40;69.80
21580;DHT22;10951;59.656;9.666;2023-04-03T01:55:56;-2.40;69.80
21580;DHT22;10951;59.656;9.666;2023-04-03T01:58:23;-2.50;69.50
21580;DHT22;10951;59.656;9.666;2023-04-03T02:00:52;-2.50;69.40
21580;DHT22;10951;59.656;9.666;2023-04-03T02:03:19;-2.60;69.60
21580;DHT22;10951;59.656;9.666;2023-04-03T02:05:47;-2.70;70.00
21580;DHT22;10951;59.656;9.666;2023-04-03T02:08:15;-2.70;70.50
21580;DHT22;10951;59.656;9.666;2023-04-03T02:10:47;-2.70;71.00
21580;DHT22;10951;59.656;9.666;2023-04-03T02:13:14;-2.70;71.20
21580;DHT22;10951;59.656;9.666;2023-04-03T02:15:42;-2.80;71.40
21580;DHT22;10951;59.656;9.666;2023-04-03T02:18:09;-2.80;71.90
21580;DHT22;10951;59.656;9.666;2023-04-03T02:20:36;-2.90;72.10
21580;DHT22;10951;59.656;9.666;2023-04-03T02:23:04;-2.90;72.80
21580;DHT22;10951;59.656;9.666;2023-04-03T02:25:33;-3.00;72.40
21580;DHT22;10951;59.656;9.666;2023-04-03T02:28:02;-3.00;72.40
21580;DHT22;10951;59.656;9.666;2023-04-03T02:30:30;-3.10;72.30
21580;DHT22;10951;59.656;9.666;2023-04-03T02:32:57;-3.10;72.40
21580;DHT22;10951;59.656;9.666;2023-04-03T02:35:24;-3.10;72.10
21580;DHT22;10951;59.656;9.666;2023-04-03T02:37:54;-3.10;72.40
21580;DHT22;10951;59.656;9.666;2023-04-03T02:40:22;-3.20;72.80
21580;DHT22;10951;59.656;9.666;2023-04-03T02:42:49;-3.30;73.30
21580;DHT22;10951;59.656;9.666;2023-04-03T02:45:18;-3.30;74.00
21580;DHT22;10951;59.656;9.666;2023-04-03T02:47:45;-3.40;74.30
21580;DHT22;10951;59.656;9.666;2023-04-03T02:50:13;-3.40;75.00
21580;DHT22;10951;59.656;9.666;2023-04-03T02:52:40;-3.40;75.50
21580;DHT22;10951;59.656;9.666;2023-04-03T02:55:07;-3.50;75.50
21580;DHT22;10951;59.656;9.666;2023-04-03T02:57:34;-3.50;75.40
21580;DHT22;10951;59.656;9.666;2023-04-03T03:00:02;-3.50;75.20
21580;DHT22;10951;59.656;9.666;2023-04-03T03:02:29;-3.50;75.40
21580;DHT22;10951;59.656;9.666;2023-04-03T03:04:56;-3.60;75.80
21580;DHT22;10951;59.656;9.666;2023-04-03T03:07:23;-3.70;76.00
21580;DHT22;10951;59.656;9.666;2023-04-03T03:09:50;-3.70;76.30
21580;DHT22;10951;59.656;9.666;2023-04-03T03:12:17;-3.70;76.50
21580;DHT22;10951;59.656;9.666;2023-04-03T03:14:49;-3.70;76.30
21580;DHT22;10951;59.656;9.666;2023-04-03T03:17:16;-3.70;76.50
21580;DHT22;10951;59.656;9.666;2023-04-03T03:19:43;-3.80;76.80
21580;DHT22;10951;59.656;9.666;2023-04-03T03:22:10;-3.90;77.50
21580;DHT22;10951;59.656;9.666;2023-04-03T03:24:37;-3.90;78.40
21580;DHT22;10951;59.656;9.666;2023-04-03T03:27:04;-3.90;78.70
21580;DHT22;10951;59.656;9.666;2023-04-03T03:29:31;-3.90;78.70
21580;DHT22;10951;59.656;9.666;2023-04-03T03:31:58;-3.80;78.50
21580;DHT22;10951;59.656;9.666;2023-04-03T03:34:25;-3.80;78.50
21580;DHT22;10951;59.656;9.666;2023-04-03T03:36:52;-3.80;78.30
21580;DHT22;10951;59.656;9.666;2023-04-03T03:39:18;-3.80;78.30
21580;DHT22;10951;59.656;9.666;2023-04-03T03:41:46;-3.80;78.00
21580;DHT22;10951;59.656;9.666;2023-04-03T03:44:13;-4.00;77.90
21580;DHT22;10951;59.656;9.666;2023-04-03T03:46:41;-4.00;77.90
21580;DHT22;10951;59.656;9.666;2023-04-03T03:49:09;-3.90;76.50
21580;DHT22;10951;59.656;9.666;2023-04-03T03:51:36;-3.90;75.70
21580;DHT22;10951;59.656;9.666;2023-04-03T03:54:04;-3.90;75.50
21580;DHT22;10951;59.656;9.666;2023-04-03T03:56:32;-3.90;75.30
21580;DHT22;10951;59.656;9.666;2023-04-03T03:58:59;-3.90;75.20
21580;DHT22;10951;59.656;9.666;2023-04-03T04:01:26;-3.90;75.00
21580;DHT22;10951;59.656;9.666;2023-04-03T04:03:53;-3.90;74.70
21580;DHT22;10951;59.656;9.666;2023-04-03T04:06:27;-3.90;73.90
21580;DHT22;10951;59.656;9.666;2023-04-03T04:08:58;-3.90;73.70
21580;DHT22;10951;59.656;9.666;2023-04-03T04:11:25;-4.00;73.50
21580;DHT22;10951;59.656;9.666;2023-04-03T04:13:54;-4.00;72.90
21580;DHT22;10951;59.656;9.666;2023-04-03T04:16:25;-4.00;73.30
21580;DHT22;10951;59.656;9.666;2023-04-03T04:18:53;-4.00;73.00
21580;DHT22;10951;59.656;9.666;2023-04-03T04:21:22;-4.00;73.10
21580;DHT22;10951;59.656;9.666;2023-04-03T04:23:51;-4.00;73.90
21580;DHT22;10951;59.656;9.666;2023-04-03T04:26:19;-4.00;74.40
21580;DHT22;10951;59.656;9.666;2023-04-03T04:28:47;-4.10;74.70
21580;DHT22;10951;59.656;9.666;2023-04-03T04:31:14;-4.10;75.10
21580;DHT22;10951;59.656;9.666;2023-04-03T04:33:41;-4.10;76.00
21580;DHT22;10951;59.656;9.666;2023-04-03T04:36:11;-4.00;76.70
21580;DHT22;10951;59.656;9.666;2023-04-03T04:38:38;-4.00;76.60
21580;DHT22;10951;59.656;9.666;2023-04-03T04:41:06;-4.00;76.80
21580;DHT22;10951;59.656;9.666;2023-04-03T04:43:33;-4.00;76.30
21580;DHT22;10951;59.656;9.666;2023-04-03T04:46:08;-4.10;76.50
21580;DHT22;10951;59.656;9.666;2023-04-03T04:48:41;-4.10;77.20
21580;DHT22;10951;59.656;9.666;2023-04-03T04:51:10;-4.10;77.20
21580;DHT22;10951;59.656;9.666;2023-04-03T04:53:37;-4.10;77.60
21580;DHT22;10951;59.656;9.666;2023-04-03T04:56:06;-4.10;77.70
21580;DHT22;10951;59.656;9.666;2023-04-03T04:58:35;-4.20;77.60
21580;DHT22;10951;59.656;9.666;2023-04-03T05:01:07;-4.20;78.00
21580;DHT22;10951;59.656;9.666;2023-04-03T05:03:39;-4.30;77.90
21580;DHT22;10951;59.656;9.666;2023-04-03T05:06:06;-4.40;77.20
21580;DHT22;10951;59.656;9.666;2023-04-03T05:08:35;-4.30;76.10
21580;DHT22;10951;59.656;9.666;2023-04-03T05:11:02;-4.30;75.20
21580;DHT22;10951;59.656;9.666;2023-04-03T05:13:30;-4.30;75.00
21580;DHT22;10951;59.656;9.666;2023-04-03T05:15:58;-4.30;75.10
21580;DHT22;10951;59.656;9.666;2023-04-03T05:18:25;-4.30;76.50
21580;DHT22;10951;59.656;9.666;2023-04-03T05:20:55;-4.20;76.30
21580;DHT22;10951;59.656;9.666;2023-04-03T05:23:25;-4.20;75.70
21580;DHT22;10951;59.656;9.666;2023-04-03T05:25:53;-4.20;73.80
21580;DHT22;10951;59.656;9.666;2023-04-03T05:28:21;-4.20;73.90
21580;DHT22;10951;59.656;9.666;2023-04-03T05:30:58;-4.20;73.20
21580;DHT22;10951;59.656;9.666;2023-04-03T05:33:31;-4.20;72.20
21580;DHT22;10951;59.656;9.666;2023-04-03T05:36:03;-4.10;71.50
21580;DHT22;10951;59.656;9.666;2023-04-03T05:38:35;-4.10;71.30
21580;DHT22;10951;59.656;9.666;2023-04-03T05:41:02;-4.00;71.20
21580;DHT22;10951;59.656;9.666;2023-04-03T05:43:29;-3.90;70.70
21580;DHT22;10951;59.656;9.666;2023-04-03T05:45:56;-3.70;69.90
21580;DHT22;10951;59.656;9.666;2023-04-03T05:48:26;-3.50;69.30
21580;DHT22;10951;59.656;9.666;2023-04-03T05:50:53;-3.50;68.60
21580;DHT22;10951;59.656;9.666;2023-04-03T05:53:28;-3.30;68.10
21580;DHT22;10951;59.656;9.666;2023-04-03T05:55:59;-3.20;67.20
21580;DHT22;10951;59.656;9.666;2023-04-03T05:58:28;-3.10;66.60
21580;DHT22;10951;59.656;9.666;2023-04-03T06:00:57;-3.00;65.70
21580;DHT22;10951;59.656;9.666;2023-04-03T06:03:24;-3.10;65.40
21580;DHT22;10951;59.656;9.666;2023-04-03T06:05:52;-3.10;65.40
21580;DHT22;10951;59.656;9.666;2023-04-03T06:08:19;-3.10;65.00
21580;DHT22;10951;59.656;9.666;2023-04-03T06:10:46;-3.00;64.80
21580;DHT22;10951;59.656;9.666;2023-04-03T06:13:14;-3.00;64.20
21580;DHT22;10951;59.656;9.666;2023-04-03T06:15:41;-2.90;63.90
21580;DHT22;10951;59.656;9.666;2023-04-03T06:18:08;-2.80;63.40
21580;DHT22;10951;59.656;9.666;2023-04-03T06:20:36;-2.60;63.30
21580;DHT22;10951;59.656;9.666;2023-04-03T06:23:04;-2.50;62.80
21580;DHT22;10951;59.656;9.666;2023-04-03T06:25:34;-2.40;62.60
21580;DHT22;10951;59.656;9.666;2023-04-03T06:28:01;-2.20;61.70
21580;DHT22;10951;59.656;9.666;2023-04-03T06:30:28;-2.00;61.50
21580;DHT22;10951;59.656;9.666;2023-04-03T06:32:55;-1.80;60.60
21580;DHT22;10951;59.656;9.666;2023-04-03T06:35:22;-1.70;60.30
21580;DHT22;10951;59.656;9.666;2023-04-03T06:37:50;-1.50;59.80
21580;DHT22;10951;59.656;9.666;2023-04-03T06:40:21;-1.40;59.50
21580;DHT22;10951;59.656;9.666;2023-04-03T06:42:49;-1.20;59.00
21580;DHT22;10951;59.656;9.666;2023-04-03T06:45:18;-1.20;58.20
21580;DHT22;10951;59.656;9.666;2023-04-03T06:47:46;-1.20;57.80
21580;DHT22;10951;59.656;9.666;2023-04-03T06:50:13;-1.30;57.70
21580;DHT22;10951;59.656;9.666;2023-04-03T06:52:41;-1.30;58.00
21580;DHT22;10951;59.656;9.666;2023-04-03T06:55:09;-1.30;58.20
21580;DHT22;10951;59.656;9.666;2023-04-03T06:57:37;-1.20;58.00
21580;DHT22;10951;59.656;9.666;2023-04-03T07:00:06;-1.00;58.30
21580;DHT22;10951;59.656;9.666;2023-04-03T07:02:33;-0.80;57.50
21580;DHT22;10951;59.656;9.666;2023-04-03T07:05:00;-0.60;56.60
21580;DHT22;10951;59.656;9.666;2023-04-03T07:07:27;-0.50;56.60
21580;DHT22;10951;59.656;9.666;2023-04-03T07:09:54;-0.30;56.00
21580;DHT22;10951;59.656;9.666;2023-04-03T07:12:21;-0.20;55.50
21580;DHT22;10951;59.656;9.666;2023-04-03T07:14:48;-0.10;55.00
21580;DHT22;10951;59.656;9.666;2023-04-03T07:17:15;-0.10;54.70
21580;DHT22;10951;59.656;9.666;2023-04-03T07:19:42;0.00;55.20
21580;DHT22;10951;59.656;9.666;2023-04-03T07:22:09;0.10;54.70
21580;DHT22;10951;59.656;9.666;2023-04-03T07:24:37;0.20;54.20
21580;DHT22;10951;59.656;9.666;2023-04-03T07:27:04;0.30;54.30
21580;DHT22;10951;59.656;9.666;2023-04-03T07:29:32;0.50;54.10
21580;DHT22;10951;59.656;9.666;2023-04-03T07:31:59;0.60;53.60
21580;DHT22;10951;59.656;9.666;2023-04-03T07:34:26;0.80;53.40
21580;DHT22;10951;59.656;9.666;2023-04-03T07:36:53;0.90;53.20
21580;DHT22;10951;59.656;9.666;2023-04-03T07:39:21;1.10;52.80
21580;DHT22;10951;59.656;9.666;2023-04-03T07:41:47;1.30;52.50
21580;DHT22;10951;59.656;9.666;2023-04-03T07:44:14;1.50;51.70
21580;DHT22;10951;59.656;9.666;2023-04-03T07:46:41;1.70;51.60
21580;DHT22;10951;59.656;9.666;2023-04-03T07:49:09;1.90;51.50
21580;DHT22;10951;59.656;9.666;2023-04-03T07:51:36;2.10;51.10
21580;DHT22;10951;59.656;9.666;2023-04-03T07:54:03;2.30;50.10
21580;DHT22;10951;59.656;9.666;2023-04-03T07:56:30;2.30;50.00
21580;DHT22;10951;59.656;9.666;2023-04-03T07:58:58;2.20;49.80
21580;DHT22;10951;59.656;9.666;2023-04-03T08:01:25;2.20;50.10
21580;DHT22;10951;59.656;9.666;2023-04-03T08:03:52;2.40;50.10
21580;DHT22;10951;59.656;9.666;2023-04-03T08:06:19;2.60;49.60
21580;DHT22;10951;59.656;9.666;2023-04-03T08:09:08;2.40;49.10
21580;DHT22;10951;59.656;9.666;2023-04-03T08:11:35;2.10;49.50
21580;DHT22;10951;59.656;9.666;2023-04-03T08:14:03;2.10;49.80
21580;DHT22;10951;59.656;9.666;2023-04-03T08:16:29;2.30;49.60
21580;DHT22;10951;59.656;9.666;2023-04-03T08:18:56;2.30;49.70
21580;DHT22;10951;59.656;9.666;2023-04-03T08:21:23;2.50;49.90
21580;DHT22;10951;59.656;9.666;2023-04-03T08:23:51;2.80;49.90
21580;DHT22;10951;59.656;9.666;2023-04-03T08:26:20;3.10;49.40
21580;DHT22;10951;59.656;9.666;2023-04-03T08:28:48;3.20;48.80
21580;DHT22;10951;59.656;9.666;2023-04-03T08:31:18;3.20;48.50
21580;DHT22;10951;59.656;9.666;2023-04-03T08:33:46;3.40;48.90
21580;DHT22;10951;59.656;9.666;2023-04-03T08:36:22;3.50;48.40
21580;DHT22;10951;59.656;9.666;2023-04-03T08:38:51;3.70;48.30
21580;DHT22;10951;59.656;9.666;2023-04-03T08:41:32;3.90;48.50
21580;DHT22;10951;59.656;9.666;2023-04-03T08:49:37;4.30;47.10
21580;DHT22;10951;59.656;9.666;2023-04-03T08:52:11;4.50;48.00
21580;DHT22;10951;59.656;9.666;2023-04-03T08:57:16;5.00;48.20
21580;DHT22;10951;59.656;9.666;2023-04-03T08:59:44;5.10;46.30
21580;DHT22;10951;59.656;9.666;2023-04-03T09:10:44;5.70;45.50
21580;DHT22;10951;59.656;9.666;2023-04-03T09:13:35;5.70;45.30
21580;DHT22;10951;59.656;9.666;2023-04-03T09:16:20;5.70;45.20
21580;DHT22;10951;59.656;9.666;2023-04-03T09:18:57;5.60;46.00
21580;DHT22;10951;59.656;9.666;2023-04-03T09:21:36;5.50;45.60
21580;DHT22;10951;59.656;9.666;2023-04-03T09:24:06;5.60;46.50
21580;DHT22;10951;59.656;9.666;2023-04-03T09:26:46;5.70;46.00
21580;DHT22;10951;59.656;9.666;2023-04-03T09:29:19;6.00;45.50
21580;DHT22;10951;59.656;9.666;2023-04-03T09:31:50;6.30;45.60
21580;DHT22;10951;59.656;9.666;2023-04-03T09:34:26;6.40;46.30
21580;DHT22;10951;59.656;9.666;2023-04-03T09:36:55;6.40;45.40
21580;DHT22;10951;59.656;9.666;2023-04-03T09:39:26;6.50;46.10
21580;DHT22;10951;59.656;9.666;2023-04-03T09:42:03;6.60;44.80
21580;DHT22;10951;59.656;9.666;2023-04-03T09:44:36;6.60;44.20
21580;DHT22;10951;59.656;9.666;2023-04-03T09:47:26;6.70;44.90
21580;DHT22;10951;59.656;9.666;2023-04-03T09:52:42;7.00;45.40
21580;DHT22;10951;59.656;9.666;2023-04-03T09:55:16;7.10;45.60
21580;DHT22;10951;59.656;9.666;2023-04-03T09:57:45;7.20;45.40
21580;DHT22;10951;59.656;9.666;2023-04-03T10:00:23;7.30;44.20
21580;DHT22;10951;59.656;9.666;2023-04-03T10:02:54;7.30;43.90
21580;DHT22;10951;59.656;9.666;2023-04-03T10:05:37;7.40;43.90
21580;DHT22;10951;59.656;9.666;2023-04-03T10:10:42;7.40;44.00
21580;DHT22;10951;59.656;9.666;2023-04-03T10:13:15;7.50;45.00
21580;DHT22;10951;59.656;9.666;2023-04-03T10:15:51;7.60;44.10
21580;DHT22;10951;59.656;9.666;2023-04-03T10:18:41;7.50;43.20
21580;DHT22;10951;59.656;9.666;2023-04-03T10:24:12;7.60;43.30
21580;DHT22;10951;59.656;9.666;2023-04-03T10:29:18;7.50;42.40
21580;DHT22;10951;59.656;9.666;2023-04-03T10:34:39;7.80;42.40
21580;DHT22;10951;59.656;9.666;2023-04-03T10:37:27;7.60;42.30
21580;DHT22;10951;59.656;9.666;2023-04-03T10:40:18;7.60;42.50
21580;DHT22;10951;59.656;9.666;2023-04-03T10:42:56;7.60;42.30
21580;DHT22;10951;59.656;9.666;2023-04-03T10:51:24;7.80;43.30
21580;DHT22;10951;59.656;9.666;2023-04-03T10:53:57;7.90;44.00
21580;DHT22;10951;59.656;9.666;2023-04-03T10:56:30;8.00;43.50
21580;DHT22;10951;59.656;9.666;2023-04-03T10:59:15;8.20;42.80
21580;DHT22;10951;59.656;9.666;2023-04-03T11:01:48;8.00;42.50
21580;DHT22;10951;59.656;9.666;2023-04-03T11:04:17;8.10;43.20
21580;DHT22;10951;59.656;9.666;2023-04-03T11:06:57;8.10;43.10
21580;DHT22;10951;59.656;9.666;2023-04-03T11:09:31;8.30;42.90
21580;DHT22;10951;59.656;9.666;2023-04-03T11:14:50;8.60;43.40
21580;DHT22;10951;59.656;9.666;2023-04-03T11:22:40;8.90;42.10
21580;DHT22;10951;59.656;9.666;2023-04-03T11:27:48;8.90;42.30
21580;DHT22;10951;59.656;9.666;2023-04-03T11:36:19;9.20;42.60
21580;DHT22;10951;59.656;9.666;2023-04-03T11:39:01;9.00;41.90
21580;DHT22;10951;59.656;9.666;2023-04-03T11:41:34;8.90;42.40
21580;DHT22;10951;59.656;9.666;2023-04-03T11:44:05;8.90;42.00
21580;DHT22;10951;59.656;9.666;2023-04-03T11:47:08;8.70;42.60
21580;DHT22;10951;59.656;9.666;2023-04-03T12:18:59;9.80;39.50
21580;DHT22;10951;59.656;9.666;2023-04-03T12:29:21;10.30;39.50
21580;DHT22;10951;59.656;9.666;2023-04-03T12:35:10;10.60;41.90
21580;DHT22;10951;59.656;9.666;2023-04-03T12:48:29;10.90;40.50
21580;DHT22;10951;59.656;9.666;2023-04-03T12:50:58;11.00;41.00
21580;DHT22;10951;59.656;9.666;2023-04-03T12:53:33;11.00;40.60
21580;DHT22;10951;59.656;9.666;2023-04-03T12:58:47;10.70;39.30
21580;DHT22;10951;59.656;9.666;2023-04-03T13:01:17;10.60;38.90
21580;DHT22;10951;59.656;9.666;2023-04-03T13:03:47;10.70;39.70
21580;DHT22;10951;59.656;9.666;2023-04-03T13:06:25;10.90;40.20
21580;DHT22;10951;59.656;9.666;2023-04-03T13:08:55;11.10;40.70
21580;DHT22;10951;59.656;9.666;2023-04-03T13:11:25;11.20;41.60
21580;DHT22;10951;59.656;9.666;2023-04-03T13:14:12;11.40;40.30
21580;DHT22;10951;59.656;9.666;2023-04-03T13:16:40;11.40;40.10
21580;DHT22;10951;59.656;9.666;2023-04-03T13:19:16;11.40;39.00
21580;DHT22;10951;59.656;9.666;2023-04-03T13:21:44;11.40;38.80
21580;DHT22;10951;59.656;9.666;2023-04-03T13:24:12;11.40;39.40
21580;DHT22;10951;59.656;9.666;2023-04-03T13:26:42;11.20;39.00
21580;DHT22;10951;59.656;9.666;2023-04-03T13:29:28;11.10;39.10
21580;DHT22;10951;59.656;9.666;2023-04-03T13:31:58;11.10;39.10
21580;DHT22;10951;59.656;9.666;2023-04-03T13:34:35;11.10;40.10
21580;DHT22;10951;59.656;9.666;2023-04-03T13:37:03;11.10;38.80
21580;DHT22;10951;59.656;9.666;2023-04-03T13:39:39;11.10;39.30
21580;DHT22;10951;59.656;9.666;2023-04-03T13:42:26;11.10;38.70
21580;DHT22;10951;59.656;9.666;2023-04-03T13:45:24;11.20;38.50
21580;DHT22;10951;59.656;9.666;2023-04-03T13:48:19;11.30;39.40
21580;DHT22;10951;59.656;9.666;2023-04-03T13:51:05;11.30;39.30
21580;DHT22;10951;59.656;9.666;2023-04-03T13:53:46;11.20;39.20
21580;DHT22;10951;59.656;9.666;2023-04-03T13:56:34;11.10;38.70
21580;DHT22;10951;59.656;9.666;2023-04-03T14:02:13;11.10;40.20
21580;DHT22;10951;59.656;9.666;2023-04-03T14:07:12;11.10;39.20
21580;DHT22;10951;59.656;9.666;2023-04-03T14:09:39;11.20;39.70
21580;DHT22;10951;59.656;9.666;2023-04-03T14:12:27;11.30;39.90
21580;DHT22;10951;59.656;9.666;2023-04-03T14:15:03;11.30;39.60
21580;DHT22;10951;59.656;9.666;2023-04-03T14:17:30;11.30;39.20
21580;DHT22;10951;59.656;9.666;2023-04-03T14:19:58;11.30;39.70
21580;DHT22;10951;59.656;9.666;2023-04-03T14:22:29;11.20;39.40
21580;DHT22;10951;59.656;9.666;2023-04-03T14:24:56;11.00;39.70
21580;DHT22;10951;59.656;9.666;2023-04-03T14:27:35;11.00;40.20
21580;DHT22;10951;59.656;9.666;2023-04-03T14:30:03;11.00;40.10
21580;DHT22;10951;59.656;9.666;2023-04-03T14:32:31;10.90;40.30
21580;DHT22;10951;59.656;9.666;2023-04-03T14:34:59;10.80;40.10
21580;DHT22;10951;59.656;9.666;2023-04-03T14:37:28;10.70;40.10
21580;DHT22;10951;59.656;9.666;2023-04-03T14:39:57;10.80;41.60
21580;DHT22;10951;59.656;9.666;2023-04-03T14:42:29;10.80;40.80
21580;DHT22;10951;59.656;9.666;2023-04-03T14:44:58;10.70;40.40
21580;DHT22;10951;59.656;9.666;2023-04-03T14:47:26;10.60;40.80
21580;DHT22;10951;59.656;9.666;2023-04-03T14:49:59;10.50;40.30
21580;DHT22;10951;59.656;9.666;2023-04-03T14:52:33;10.50;40.30
21580;DHT22;10951;59.656;9.666;2023-04-03T14:55:02;10.60;40.30
21580;DHT22;10951;59.656;9.666;2023-04-03T14:57:30;10.50;41.20
21580;DHT22;10951;59.656;9.666;2023-04-03T14:59:58;10.50;40.80
21580;DHT22;10951;59.656;9.666;2023-04-03T15:02:29;10.50;40.60
21580;DHT22;10951;59.656;9.666;2023-04-03T15:04:58;10.50;40.30
21580;DHT22;10951;59.656;9.666;2023-04-03T15:07:27;10.60;39.90
21580;DHT22;10951;59.656;9.666;2023-04-03T15:09:55;10.70;39.80
21580;DHT22;10951;59.656;9.666;2023-04-03T15:12:25;10.70;40.30
21580;DHT22;10951;59.656;9.666;2023-04-03T15:14:52;10.70;38.90
21580;DHT22;10951;59.656;9.666;2023-04-03T15:17:28;10.60;39.60
21580;DHT22;10951;59.656;9.666;2023-04-03T15:19:55;10.60;39.40
21580;DHT22;10951;59.656;9.666;2023-04-03T15:22:22;10.60;40.00
21580;DHT22;10951;59.656;9.666;2023-04-03T15:24:49;10.70;38.00
21580;DHT22;10951;59.656;9.666;2023-04-03T15:27:16;10.70;39.60
21580;DHT22;10951;59.656;9.666;2023-04-03T15:29:43;10.70;40.80
21580;DHT22;10951;59.656;9.666;2023-04-03T15:32:12;10.70;40.00
21580;DHT22;10951;59.656;9.666;2023-04-03T15:34:40;10.70;40.00
21580;DHT22;10951;59.656;9.666;2023-04-03T15:37:07;10.70;40.20
21580;DHT22;10951;59.656;9.666;2023-04-03T15:39:34;10.70;40.40
21580;DHT22;10951;59.656;9.666;2023-04-03T15:42:01;10.60;39.90
21580;DHT22;10951;59.656;9.666;2023-04-03T15:44:36;10.50;39.90
21580;DHT22;10951;59.656;9.666;2023-04-03T15:47:03;10.50;40.50
21580;DHT22;10951;59.656;9.666;2023-04-03T15:49:32;10.50;40.30
21580;DHT22;10951;59.656;9.666;2023-04-03T15:51:59;10.50;40.10
21580;DHT22;10951;59.656;9.666;2023-04-03T15:54:27;10.60;40.80
21580;DHT22;10951;59.656;9.666;2023-04-03T15:56:56;10.60;40.20
21580;DHT22;10951;59.656;9.666;2023-04-03T15:59:23;10.50;40.40
21580;DHT22;10951;59.656;9.666;2023-04-03T16:01:51;10.60;40.20
21580;DHT22;10951;59.656;9.666;2023-04-03T16:04:19;10.50;39.20
21580;DHT22;10951;59.656;9.666;2023-04-03T16:06:47;10.50;40.50
21580;DHT22;10951;59.656;9.666;2023-04-03T16:09:15;10.40;38.70
21580;DHT22;10951;59.656;9.666;2023-04-03T16:11:42;10.30;40.30
21580;DHT22;10951;59.656;9.666;2023-04-03T16:14:10;10.30;40.80
21580;DHT22;10951;59.656;9.666;2023-04-03T16:16:37;10.40;40.60
21580;DHT22;10951;59.656;9.666;2023-04-03T16:19:04;10.40;40.10
21580;DHT22;10951;59.656;9.666;2023-04-03T16:21:32;10.40;41.50
21580;DHT22;10951;59.656;9.666;2023-04-03T16:24:00;10.40;40.00
21580;DHT22;10951;59.656;9.666;2023-04-03T16:26:27;10.40;40.70
21580;DHT22;10951;59.656;9.666;2023-04-03T16:28:54;10.50;40.70
21580;DHT22;10951;59.656;9.666;2023-04-03T16:31:23;10.50;41.80
21580;DHT22;10951;59.656;9.666;2023-04-03T16:33:51;10.50;40.80
21580;DHT22;10951;59.656;9.666;2023-04-03T16:36:18;10.50;41.10
21580;DHT22;10951;59.656;9.666;2023-04-03T16:38:45;10.50;42.10
21580;DHT22;10951;59.656;9.666;2023-04-03T16:41:12;10.50;40.60
21580;DHT22;10951;59.656;9.666;2023-04-03T16:43:38;10.40;38.90
21580;DHT22;10951;59.656;9.666;2023-04-03T16:46:06;10.30;40.70
21580;DHT22;10951;59.656;9.666;2023-04-03T16:48:33;10.10;41.80
21580;DHT22;10951;59.656;9.666;2023-04-03T16:51:00;9.90;42.60
21580;DHT22;10951;59.656;9.666;2023-04-03T16:53:27;9.70;42.90
21580;DHT22;10951;59.656;9.666;2023-04-03T16:55:57;9.60;42.80
21580;DHT22;10951;59.656;9.666;2023-04-03T16:58:24;9.60;42.90
21580;DHT22;10951;59.656;9.666;2023-04-03T17:00:51;9.50;44.10
21580;DHT22;10951;59.656;9.666;2023-04-03T17:03:20;9.40;44.40
21580;DHT22;10951;59.656;9.666;2023-04-03T17:05:47;9.30;44.10
21580;DHT22;10951;59.656;9.666;2023-04-03T17:08:16;9.20;44.30
21580;DHT22;10951;59.656;9.666;2023-04-03T17:10:44;9.10;44.10
21580;DHT22;10951;59.656;9.666;2023-04-03T17:13:11;9.00;44.30
21580;DHT22;10951;59.656;9.666;2023-04-03T17:15:39;8.90;44.60
21580;DHT22;10951;59.656;9.666;2023-04-03T17:18:07;8.80;45.50
21580;DHT22;10951;59.656;9.666;2023-04-03T17:20:34;8.70;46.10
21580;DHT22;10951;59.656;9.666;2023-04-03T17:23:02;8.50;45.50
21580;DHT22;10951;59.656;9.666;2023-04-03T17:25:29;8.40;45.10
21580;DHT22;10951;59.656;9.666;2023-04-03T17:27:56;8.30;45.30
21580;DHT22;10951;59.656;9.666;2023-04-03T17:30:23;8.20;46.30
21580;DHT22;10951;59.656;9.666;2023-04-03T17:32:50;8.10;45.50
21580;DHT22;10951;59.656;9.666;2023-04-03T17:35:17;8.00;45.80
21580;DHT22;10951;59.656;9.666;2023-04-03T17:37:44;7.80;47.30
21580;DHT22;10951;59.656;9.666;2023-04-03T17:40:11;7.70;47.90
21580;DHT22;10951;59.656;9.666;2023-04-03T17:42:40;7.50;48.20
21580;DHT22;10951;59.656;9.666;2023-04-03T17:45:07;7.30;49.40
21580;DHT22;10951;59.656;9.666;2023-04-03T17:47:34;7.20;50.10
21580;DHT22;10951;59.656;9.666;2023-04-03T17:50:01;7.10;50.10
21580;DHT22;10951;59.656;9.666;2023-04-03T17:52:28;7.10;50.50